Time;durP1;ratioP1;P1;durP2;ratioP2;P2;SDS_P1;SDS_P2;PMS_P1;PMS_P2;Temp;Humidity;BMP_temperature;BMP_pressure;BME280_temperature;BME280_humidity;BME280_pressure;Samples;Min_cycle;Max_cycle;Signal;HPM_P1;HPM_P2
2022/12/10 00:01:22;;;;;;;9.80;9.10;;;;;;;;;;5014573;28;20061;-61
2022/12/10 00:03:47;;;;;;;9.18;8.48;;;;;;;;;;5016569;28;20042;-61
2022/12/10 00:06:16;;;;;;;11.50;10.40;;;;;;;;;;5015973;28;20774;-62
2022/12/10 00:08:41;;;;;;;9.02;8.32;;;;;;;;;;5020026;28;20148;-61
2022/12/10 00:11:09;;;;;;;8.18;7.53;;;;;;;;;;5013249;28;20199;-60
2022/12/10 00:13:36;;;;;;;11.45;10.48;;;;;;;;;;5020715;28;20045;-61
2022/12/10 00:16:03;;;;;;;10.98;9.93;;;;;;;;;;5011240;28;20140;-60
2022/12/10 00:18:28;;;;;;;10.02;9.15;;;;;;;;;;5012028;28;20128;-61
2022/12/10 00:20:54;;;;;;;12.98;9.27;;;;;;;;;;5012702;28;20136;-61
2022/12/10 00:23:19;;;;;;;9.07;8.38;;;;;;;;;;5014514;28;20098;-61
2022/12/10 00:25:45;;;;;;;9.80;9.10;;;;;;;;;;5012153;28;20049;-61
2022/12/10 00:28:10;;;;;;;9.88;9.18;;;;;;;;;;5011082;28;20084;-60
2022/12/10 00:30:36;;;;;;;10.38;9.57;;;;;;;;;;5015653;28;20092;-61
2022/12/10 00:33:01;;;;;;;9.35;8.57;;;;;;;;;;5007818;28;20041;-61
2022/12/10 00:35:26;;;;;;;9.63;8.82;;;;;;;;;;5015170;28;20069;-62
2022/12/10 00:37:52;;;;;;;8.40;7.80;;;;;;;;;;5012992;28;20029;-60
2022/12/10 00:40:17;;;;;;;8.95;8.35;;;;;;;;;;5016099;28;20042;-62
2022/12/10 00:42:43;;;;;;;8.65;8.02;;;;;;;;;;5015639;28;20118;-62
2022/12/10 00:45:08;;;;;;;9.10;8.50;;;;;;;;;;5018993;28;20558;-61
2022/12/10 00:47:34;;;;;;;10.25;9.38;;;;;;;;;;5018383;28;20057;-61
2022/12/10 00:49:59;;;;;;;10.30;9.50;;;;;;;;;;5017321;28;20049;-61
2022/12/10 00:52:25;;;;;;;9.43;8.68;;;;;;;;;;5014795;28;20612;-61
2022/12/10 00:54:50;;;;;;;10.15;9.20;;;;;;;;;;5017614;28;20033;-61
2022/12/10 00:57:16;;;;;;;9.57;8.70;;;;;;;;;;5018899;28;20029;-63
2022/12/10 00:59:41;;;;;;;10.25;9.45;;;;;;;;;;5018008;28;20855;-61
2022/12/10 01:02:07;;;;;;;11.40;8.50;;;;;;;;;;5015957;28;20045;-61
2022/12/10 01:04:32;;;;;;;10.48;8.45;;;;;;;;;;5014377;28;20141;-61
2022/12/10 01:06:59;;;;;;;9.18;8.45;;;;;;;;;;5020248;28;20033;-61
2022/12/10 01:09:28;;;;;;;9.23;8.52;;;;;;;;;;5017540;28;20046;-61
2022/12/10 01:11:54;;;;;;;8.68;8.07;;;;;;;;;;5014262;28;20072;-60
2022/12/10 01:14:26;;;;;;;10.38;9.40;;;;;;;;;;5018809;28;20092;-60
2022/12/10 01:16:57;;;;;;;8.02;7.43;;;;;;;;;;5016116;28;20042;-62
2022/12/10 01:19:23;;;;;;;11.43;10.32;;;;;;;;;;5014458;28;20048;-63
2022/12/10 01:21:52;;;;;;;10.55;9.70;;;;;;;;;;5016888;28;20053;-62
2022/12/10 01:24:22;;;;;;;9.45;8.68;;;;;;;;;;5018237;28;20073;-63
2022/12/10 01:26:47;;;;;;;9.40;8.70;;;;;;;;;;5016725;28;20112;-60
2022/12/10 01:29:12;;;;;;;7.93;7.38;;;;;;;;;;5015323;28;20113;-62
2022/12/10 01:31:38;;;;;;;8.07;7.47;;;;;;;;;;5012786;28;20123;-62
2022/12/10 01:34:06;;;;;;;9.50;8.80;;;;;;;;;;5017387;28;20029;-62
2022/12/10 01:36:36;;;;;;;11.30;10.30;;;;;;;;;;5017150;28;20056;-62
2022/12/10 01:39:04;;;;;;;9.38;8.57;;;;;;;;;;5013050;28;20099;-62
2022/12/10 01:41:58;;;;;;;9.20;8.50;;;;;;;;;;5018295;28;20034;-62
2022/12/10 01:44:23;;;;;;;9.45;8.65;;;;;;;;;;5015536;28;20037;-62
2022/12/10 01:46:51;;;;;;;9.57;8.85;;;;;;;;;;5015736;28;20048;-62
2022/12/10 01:49:23;;;;;;;10.18;9.18;;;;;;;;;;5018578;28;20060;-62
2022/12/10 01:51:51;;;;;;;8.70;8.10;;;;;;;;;;5014612;28;20029;-62
2022/12/10 01:54:24;;;;;;;9.10;8.40;;;;;;;;;;5016899;28;20065;-63
2022/12/10 01:57:05;;;;;;;9.60;8.93;;;;;;;;;;5015316;28;20042;-62
2022/12/10 01:59:32;;;;;;;;;;;;;;;;;;5015359;28;20037;-61
2022/12/10 02:02:12;;;;;;;9.82;9.07;;;;;;;;;;5015962;28;19952;-62
2022/12/10 02:04:56;;;;;;;9.45;8.75;;;;;;;;;;5017077;28;20041;-62
2022/12/10 02:07:47;;;;;;;9.82;9.02;;;;;;;;;;5015985;28;20030;-62
2022/12/10 02:10:12;;;;;;;8.43;7.70;;;;;;;;;;5015124;28;20048;-62
2022/12/10 02:12:56;;;;;;;8.02;7.43;;;;;;;;;;5017194;28;20049;-62
2022/12/10 02:15:26;;;;;;;8.70;8.10;;;;;;;;;;5014302;28;20075;-62
2022/12/10 02:17:59;;;;;;;7.72;7.22;;;;;;;;;;5015638;28;20034;-62
2022/12/10 02:20:34;;;;;;;9.45;8.65;;;;;;;;;;5015374;28;20084;-63
2022/12/10 02:23:09;;;;;;;9.60;8.80;;;;;;;;;;5014479;28;20065;-62
2022/12/10 02:25:45;;;;;;;9.88;9.05;;;;;;;;;;5015247;28;20095;-62
2022/12/10 02:28:17;;;;;;;9.70;8.68;;;;;;;;;;5014517;28;20030;-63
2022/12/10 02:30:43;;;;;;;;;;;;;;;;;;5015691;28;20041;-63
2022/12/10 02:33:11;;;;;;;8.48;7.70;;;;;;;;;;5016345;28;19917;-62
2022/12/10 02:35:38;;;;;;;8.38;7.85;;;;;;;;;;5013587;28;20037;-62
2022/12/10 02:38:12;;;;;;;9.50;8.80;;;;;;;;;;5015547;28;20049;-61
2022/12/10 02:40:41;;;;;;;8.65;8.05;;;;;;;;;;5013272;28;20403;-63
2022/12/10 02:43:08;;;;;;;8.60;8.00;;;;;;;;;;5016432;28;20042;-61
2022/12/10 02:45:34;;;;;;;8.88;8.23;;;;;;;;;;5012008;28;20061;-62
2022/12/10 02:48:03;;;;;;;10.27;8.57;;;;;;;;;;5014211;28;20038;-62
2022/12/10 02:50:28;;;;;;;8.73;8.13;;;;;;;;;;5014836;28;20037;-62
2022/12/10 02:52:53;;;;;;;9.50;8.70;;;;;;;;;;5015293;28;20029;-62
2022/12/10 02:55:19;;;;;;;8.35;7.75;;;;;;;;;;5015443;28;20500;-63
2022/12/10 02:57:47;;;;;;;7.93;7.32;;;;;;;;;;5013922;28;20038;-62
2022/12/10 03:00:18;;;;;;;9.02;8.30;;;;;;;;;;5013413;28;20246;-61
2022/12/10 03:03:05;;;;;;;9.67;8.90;;;;;;;;;;5014620;28;20095;-62
2022/12/10 03:05:46;;;;;;;8.82;8.13;;;;;;;;;;5014735;28;20280;-63
2022/12/10 03:08:21;;;;;;;8.95;8.35;;;;;;;;;;5014182;28;20071;-62
2022/12/10 03:11:18;;;;;;;9.73;8.93;;;;;;;;;;5012183;28;20052;-61
2022/12/10 03:13:59;;;;;;;8.93;8.32;;;;;;;;;;5010805;28;20115;-62
2022/12/10 03:16:29;;;;;;;8.40;7.80;;;;;;;;;;5016173;28;20072;-62
2022/12/10 03:18:57;;;;;;;8.27;7.57;;;;;;;;;;5013648;28;20030;-61
2022/12/10 03:21:25;;;;;;;8.45;7.82;;;;;;;;;;5015738;28;20038;-62
2022/12/10 03:23:51;;;;;;;9.60;8.65;;;;;;;;;;5013814;28;20037;-63
2022/12/10 03:26:18;;;;;;;7.90;7.40;;;;;;;;;;5014874;28;20034;-61
2022/12/10 03:28:51;;;;;;;8.68;7.97;;;;;;;;;;5009779;28;20049;-63
2022/12/10 03:31:19;;;;;;;7.90;7.30;;;;;;;;;;5012881;28;20034;-62
2022/12/10 03:33:46;;;;;;;8.93;8.23;;;;;;;;;;5012882;28;20481;-62
2022/12/10 03:36:13;;;;;;;9.00;8.30;;;;;;;;;;5011836;28;20049;-62
2022/12/10 03:38:39;;;;;;;8.38;7.78;;;;;;;;;;5009809;28;20077;-62
2022/12/10 03:41:05;;;;;;;7.68;7.18;;;;;;;;;;5011788;28;20113;-61
2022/12/10 03:43:30;;;;;;;9.18;8.50;;;;;;;;;;5013988;28;20116;-61
2022/12/10 03:45:56;;;;;;;8.35;7.75;;;;;;;;;;5012879;28;20041;-62
2022/12/10 03:48:21;;;;;;;8.57;7.97;;;;;;;;;;5013497;28;20112;-63
2022/12/10 03:50:46;;;;;;;8.65;7.97;;;;;;;;;;5016223;28;20037;-62
2022/12/10 03:53:12;;;;;;;7.78;7.18;;;;;;;;;;5016876;28;20415;-61
2022/12/10 03:55:37;;;;;;;8.55;7.93;;;;;;;;;;5016956;28;20479;-61
2022/12/10 03:58:03;;;;;;;8.93;8.25;;;;;;;;;;5019488;28;20526;-61
2022/12/10 04:00:28;;;;;;;8.13;7.50;;;;;;;;;;5014310;28;20131;-62
2022/12/10 04:02:53;;;;;;;8.38;7.68;;;;;;;;;;5012021;28;20133;-62
2022/12/10 04:05:19;;;;;;;9.23;8.30;;;;;;;;;;5013165;28;20033;-63
2022/12/10 04:07:44;;;;;;;8.38;7.78;;;;;;;;;;5015266;28;20033;-62
2022/12/10 04:10:10;;;;;;;8.25;7.63;;;;;;;;;;5018812;28;20095;-63
2022/12/10 04:12:35;;;;;;;8.50;7.90;;;;;;;;;;5018325;28;20033;-62
2022/12/10 04:17:44;;;;;;;8.98;8.35;;;;;;;;;;5017715;28;20038;-62
2022/12/10 04:26:51;;;;;;;8.88;8.07;;;;;;;;;;5017746;28;20033;-62
2022/12/10 04:28:22;;;;;;;7.75;7.25;;;;;;;;;;5013970;28;20069;-63
2022/12/10 04:30:48;;;;;;;9.05;8.38;;;;;;;;;;5018531;28;20034;-62
2022/12/10 04:33:13;;;;;;;8.52;7.93;;;;;;;;;;5018647;28;20037;-61
2022/12/10 04:35:38;;;;;;;8.88;8.27;;;;;;;;;;5017695;28;20025;-63
2022/12/10 04:38:04;;;;;;;7.57;7.07;;;;;;;;;;5015237;28;20440;-62
2022/12/10 04:40:29;;;;;;;9.43;8.50;;;;;;;;;;5016026;28;20781;-61
2022/12/10 04:42:54;;;;;;;8.75;8.10;;;;;;;;;;5015265;28;20042;-62
2022/12/10 04:45:20;;;;;;;8.13;7.50;;;;;;;;;;5014879;28;20116;-61
2022/12/10 04:47:45;;;;;;;8.75;8.15;;;;;;;;;;5016793;28;20661;-62
2022/12/10 04:50:10;;;;;;;8.88;8.02;;;;;;;;;;5017245;28;20052;-61
2022/12/10 04:52:36;;;;;;;8.27;7.68;;;;;;;;;;5017230;28;20092;-63
2022/12/10 04:55:01;;;;;;;8.75;8.13;;;;;;;;;;5015381;28;20042;-62
2022/12/10 04:57:26;;;;;;;8.30;7.65;;;;;;;;;;5013136;28;20034;-61
2022/12/10 04:59:52;;;;;;;8.80;8.20;;;;;;;;;;5010621;28;20041;-62
2022/12/10 05:02:17;;;;;;;9.43;8.73;;;;;;;;;;5012561;28;20053;-61
2022/12/10 05:04:43;;;;;;;9.55;8.85;;;;;;;;;;5018477;28;20526;-62
2022/12/10 05:07:08;;;;;;;8.27;7.68;;;;;;;;;;5019563;28;20026;-62
2022/12/10 05:09:33;;;;;;;9.00;7.90;;;;;;;;;;5013775;28;20478;-62
2022/12/10 05:11:59;;;;;;;8.15;7.57;;;;;;;;;;5016949;28;20121;-61
2022/12/10 05:14:24;;;;;;;7.50;7.00;;;;;;;;;;5016767;28;20042;-62
2022/12/10 05:16:51;;;;;;;8.32;7.72;;;;;;;;;;5013191;28;20041;-61
2022/12/10 05:19:19;;;;;;;8.48;7.78;;;;;;;;;;5014201;28;20048;-62
2022/12/10 05:24:28;;;;;;;8.50;7.90;;;;;;;;;;5016334;28;20033;-61
2022/12/10 05:26:54;;;;;;;8.75;8.15;;;;;;;;;;5018540;28;20033;-61
2022/12/10 05:29:19;;;;;;;7.60;7.10;;;;;;;;;;5015481;28;20348;-62
2022/12/10 05:31:45;;;;;;;7.53;7.03;;;;;;;;;;5017402;28;20476;-62
2022/12/10 05:34:11;;;;;;;8.02;7.38;;;;;;;;;;5014704;28;20033;-61
2022/12/10 05:36:37;;;;;;;8.75;8.13;;;;;;;;;;5014688;28;20036;-61
2022/12/10 05:39:03;;;;;;;9.05;8.38;;;;;;;;;;5011389;28;20144;-62
2022/12/10 05:41:30;;;;;;;8.30;7.70;;;;;;;;;;5018412;28;20388;-60
2022/12/10 05:43:57;;;;;;;8.63;7.93;;;;;;;;;;5012777;28;20030;-62
2022/12/10 05:46:26;;;;;;;18.38;9.00;;;;;;;;;;5014461;28;20371;-61
2022/12/10 05:48:52;;;;;;;8.98;8.38;;;;;;;;;;5013916;28;20069;-59
2022/12/10 05:51:24;;;;;;;7.68;7.13;;;;;;;;;;5015962;28;20401;-61
2022/12/10 05:53:51;;;;;;;8.05;7.45;;;;;;;;;;5013284;28;20044;-62
2022/12/10 05:56:18;;;;;;;8.73;8.13;;;;;;;;;;5013655;28;20375;-61
2022/12/10 05:58:45;;;;;;;9.05;8.35;;;;;;;;;;5016381;28;20029;-61
2022/12/10 06:01:14;;;;;;;9.27;8.57;;;;;;;;;;5014135;28;20041;-61
2022/12/10 06:03:40;;;;;;;8.98;8.18;;;;;;;;;;5013803;28;20034;-61
2022/12/10 06:06:06;;;;;;;8.05;7.45;;;;;;;;;;5014646;28;20033;-61
2022/12/10 06:08:32;;;;;;;7.93;7.43;;;;;;;;;;5012958;28;20143;-61
2022/12/10 06:11:05;;;;;;;7.80;7.30;;;;;;;;;;5012953;28;20159;-61
2022/12/10 06:13:31;;;;;;;9.20;8.50;;;;;;;;;;5015543;28;20388;-61
2022/12/10 06:15:56;;;;;;;8.80;8.18;;;;;;;;;;5013998;28;20042;-61
2022/12/10 06:18:22;;;;;;;8.40;7.78;;;;;;;;;;5013448;28;20116;-63
2022/12/10 06:20:47;;;;;;;9.13;8.52;;;;;;;;;;5016138;28;20041;-64
2022/12/10 06:23:13;;;;;;;8.35;7.78;;;;;;;;;;5012896;28;20037;-64
2022/12/10 06:25:39;;;;;;;8.98;8.27;;;;;;;;;;5012093;28;20064;-63
2022/12/10 06:28:05;;;;;;;9.25;8.45;;;;;;;;;;5011690;28;20087;-63
2022/12/10 06:30:30;;;;;;;8.35;7.55;;;;;;;;;;5015137;28;20129;-64
2022/12/10 06:32:56;;;;;;;9.30;8.45;;;;;;;;;;5020079;28;20202;-64
2022/12/10 06:35:21;;;;;;;9.07;8.32;;;;;;;;;;5018012;28;20021;-64
2022/12/10 06:37:48;;;;;;;8.10;7.50;;;;;;;;;;5011197;28;20029;-63
2022/12/10 06:40:14;;;;;;;8.85;8.25;;;;;;;;;;5014464;28;20030;-63
2022/12/10 06:42:39;;;;;;;9.48;8.73;;;;;;;;;;5012240;28;20098;-64
2022/12/10 06:45:05;;;;;;;9.05;8.45;;;;;;;;;;5011628;28;20048;-63
2022/12/10 06:47:30;;;;;;;9.07;8.48;;;;;;;;;;5014723;28;20040;-63
2022/12/10 06:49:55;;;;;;;8.35;7.75;;;;;;;;;;5009609;28;20095;-62
2022/12/10 06:52:21;;;;;;;8.90;8.23;;;;;;;;;;5015079;28;20084;-64
2022/12/10 06:54:46;;;;;;;8.90;8.30;;;;;;;;;;5011773;28;20505;-64
2022/12/10 06:57:11;;;;;;;10.43;9.05;;;;;;;;;;5012733;28;20033;-65
2022/12/10 06:59:37;;;;;;;8.80;8.20;;;;;;;;;;5010267;28;20076;-63
2022/12/10 07:02:02;;;;;;;7.75;7.20;;;;;;;;;;5011764;28;20095;-64
2022/12/10 07:04:27;;;;;;;9.18;8.48;;;;;;;;;;5013154;28;20443;-64
2022/12/10 07:06:53;;;;;;;8.38;7.78;;;;;;;;;;5013638;28;20109;-64
2022/12/10 07:09:18;;;;;;;8.15;7.60;;;;;;;;;;5012079;28;20048;-64
2022/12/10 07:11:43;;;;;;;8.00;7.50;;;;;;;;;;5013807;28;20447;-64
2022/12/10 07:14:15;;;;;;;7.65;7.15;;;;;;;;;;5011442;28;20044;-64
2022/12/10 07:16:41;;;;;;;10.25;9.23;;;;;;;;;;5012819;28;20352;-62
2022/12/10 07:19:09;;;;;;;7.97;7.40;;;;;;;;;;5011154;28;20431;-64
2022/12/10 07:21:35;;;;;;;8.10;7.50;;;;;;;;;;5013157;28;20033;-63
2022/12/10 07:24:07;;;;;;;9.45;8.65;;;;;;;;;;5013702;28;20448;-65
2022/12/10 07:26:35;;;;;;;9.23;8.55;;;;;;;;;;5012320;28;20038;-62
2022/12/10 07:29:02;;;;;;;14.15;10.02;;;;;;;;;;5008539;28;20038;-59
2022/12/10 07:31:28;;;;;;;10.82;9.90;;;;;;;;;;5011698;28;20037;-59
2022/12/10 07:33:56;;;;;;;9.90;9.10;;;;;;;;;;5010689;28;20034;-59
2022/12/10 07:36:22;;;;;;;8.43;7.82;;;;;;;;;;5010210;28;20548;-59
2022/12/10 07:38:49;;;;;;;8.98;8.35;;;;;;;;;;5010313;28;20053;-58
2022/12/10 07:41:15;;;;;;;9.13;8.52;;;;;;;;;;5010082;28;20096;-58
2022/12/10 07:43:42;;;;;;;9.32;8.52;;;;;;;;;;5012512;28;20034;-58
2022/12/10 07:46:14;;;;;;;12.60;11.57;;;;;;;;;;5009924;28;20727;-58
2022/12/10 07:48:40;;;;;;;24.38;21.83;;;;;;;;;;5007979;28;20026;-58
2022/12/10 07:51:06;;;;;;;15.90;14.63;;;;;;;;;;5008838;28;20052;-59
2022/12/10 07:53:31;;;;;;;9.75;8.95;;;;;;;;;;5010649;28;20073;-59
2022/12/10 07:55:57;;;;;;;9.68;8.98;;;;;;;;;;5008451;28;20029;-59
2022/12/10 07:58:22;;;;;;;9.07;8.38;;;;;;;;;;5008592;28;20122;-59
2022/12/10 08:00:48;;;;;;;9.18;8.40;;;;;;;;;;5010730;28;20049;-59
2022/12/10 08:03:13;;;;;;;9.18;8.57;;;;;;;;;;5013941;28;20036;-59
2022/12/10 08:05:38;;;;;;;9.18;8.48;;;;;;;;;;5011657;28;20494;-58
2022/12/10 08:08:04;;;;;;;8.93;8.13;;;;;;;;;;5010468;28;20040;-59
2022/12/10 08:10:30;;;;;;;8.15;7.55;;;;;;;;;;5015530;28;20471;-59
2022/12/10 08:12:55;;;;;;;9.55;8.85;;;;;;;;;;5012152;28;20098;-63
2022/12/10 08:15:20;;;;;;;9.10;8.40;;;;;;;;;;5012876;28;20468;-59
2022/12/10 08:17:46;;;;;;;8.43;7.82;;;;;;;;;;5012920;28;20034;-59
2022/12/10 08:20:11;;;;;;;8.48;7.88;;;;;;;;;;5013059;28;20633;-59
2022/12/10 08:22:37;;;;;;;9.00;8.40;;;;;;;;;;5011432;28;20411;-59
2022/12/10 08:25:03;;;;;;;7.70;7.20;;;;;;;;;;5013101;28;20128;-59
2022/12/10 08:27:28;;;;;;;8.80;8.15;;;;;;;;;;5011610;28;20074;-64
2022/12/10 08:29:53;;;;;;;10.48;9.57;;;;;;;;;;5010394;28;20371;-63
2022/12/10 08:32:19;;;;;;;8.95;8.35;;;;;;;;;;5011817;28;20037;-64
2022/12/10 08:34:44;;;;;;;9.00;8.27;;;;;;;;;;5012154;28;20033;-59
2022/12/10 08:37:10;;;;;;;9.55;8.80;;;;;;;;;;5011198;28;20034;-59
2022/12/10 08:39:35;;;;;;;8.90;8.20;;;;;;;;;;5014500;28;20118;-64
2022/12/10 08:42:00;;;;;;;8.15;7.55;;;;;;;;;;5014263;28;20084;-64
2022/12/10 08:44:26;;;;;;;9.30;8.65;;;;;;;;;;5012941;28;20355;-63
2022/12/10 08:46:51;;;;;;;9.05;8.43;;;;;;;;;;5012960;28;20103;-63
2022/12/10 08:49:16;;;;;;;9.23;8.52;;;;;;;;;;5011914;28;20522;-64
2022/12/10 08:51:42;;;;;;;9.15;8.45;;;;;;;;;;5012813;28;20312;-63
2022/12/10 08:54:07;;;;;;;10.23;9.45;;;;;;;;;;5013823;28;20041;-63
2022/12/10 08:56:32;;;;;;;8.07;7.50;;;;;;;;;;5015453;28;20463;-63
2022/12/10 08:58:58;;;;;;;8.93;8.30;;;;;;;;;;5013924;28;20459;-64
2022/12/10 09:01:23;;;;;;;7.55;7.03;;;;;;;;;;5018305;28;20193;-63
2022/12/10 09:03:49;;;;;;;8.40;7.80;;;;;;;;;;5018155;28;20280;-63
2022/12/10 09:06:18;;;;;;;8.88;8.18;;;;;;;;;;5014343;28;20037;-63
2022/12/10 09:08:44;;;;;;;9.55;8.63;;;;;;;;;;5011337;28;20499;-63
2022/12/10 09:11:38;;;;;;;8.23;7.63;;;;;;;;;;5015208;28;20029;-64
2022/12/10 09:14:03;;;;;;;9.80;9.02;;;;;;;;;;5013379;28;20064;-63
2022/12/10 09:16:31;;;;;;;7.95;7.45;;;;;;;;;;5013330;28;20643;-63
2022/12/10 09:18:57;;;;;;;8.15;7.55;;;;;;;;;;5011955;28;20439;-64
2022/12/10 09:21:23;;;;;;;8.82;8.15;;;;;;;;;;5015620;28;20467;-64
2022/12/10 09:23:50;;;;;;;8.32;7.68;;;;;;;;;;5013021;28;20045;-64
2022/12/10 09:26:16;;;;;;;8.85;8.20;;;;;;;;;;5013540;28;20037;-63
2022/12/10 09:28:42;;;;;;;8.95;8.25;;;;;;;;;;5015695;28;20053;-63
2022/12/10 09:31:08;;;;;;;9.57;8.82;;;;;;;;;;5016418;28;20045;-63
2022/12/10 09:33:34;;;;;;;8.65;8.05;;;;;;;;;;5013740;28;20049;-63
2022/12/10 09:36:01;;;;;;;8.98;8.38;;;;;;;;;;5015661;28;20030;-62
2022/12/10 09:38:27;;;;;;;10.00;9.02;;;;;;;;;;5012796;28;20048;-63
2022/12/10 09:41:04;;;;;;;8.38;7.78;;;;;;;;;;5016339;28;20037;-63
2022/12/10 09:43:35;;;;;;;9.32;8.73;;;;;;;;;;5017859;28;20033;-63
2022/12/10 09:46:06;;;;;;;;;;;;;;;;;;5013784;28;20303;-63
2022/12/10 09:48:56;;;;;;;10.23;8.85;;;;;;;;;;5013897;28;19921;-63
2022/12/10 09:51:25;;;;;;;9.25;8.63;;;;;;;;;;5020599;28;20049;-63
2022/12/10 09:53:58;;;;;;;9.02;8.32;;;;;;;;;;5013751;28;20118;-62
2022/12/10 09:56:29;;;;;;;8.77;8.18;;;;;;;;;;5013611;28;20041;-62
2022/12/10 09:58:55;;;;;;;;;;;;;;;;;;5013262;28;20101;-63
2022/12/10 10:01:24;;;;;;;8.15;7.65;;;;;;;;;;5014417;28;20379;-63
2022/12/10 10:03:50;;;;;;;10.18;9.32;;;;;;;;;;5016000;28;20038;-63
2022/12/10 10:06:16;;;;;;;8.85;8.15;;;;;;;;;;5014532;28;20049;-62
2022/12/10 10:08:48;;;;;;;8.38;7.78;;;;;;;;;;5016815;28;20038;-62
2022/12/10 10:11:28;;;;;;;10.50;8.30;;;;;;;;;;5010875;28;20125;-62
2022/12/10 10:14:03;;;;;;;9.27;8.50;;;;;;;;;;5011909;28;20087;-62
2022/12/10 10:16:36;;;;;;;9.45;8.75;;;;;;;;;;5012660;28;20657;-62
2022/12/10 10:19:13;;;;;;;8.32;7.72;;;;;;;;;;5009877;28;20037;-63
2022/12/10 10:21:41;;;;;;;8.82;8.18;;;;;;;;;;5013957;28;20356;-62
2022/12/10 10:24:13;;;;;;;9.07;8.48;;;;;;;;;;5013380;28;20044;-62
2022/12/10 10:26:39;;;;;;;9.13;8.50;;;;;;;;;;5015937;28;20034;-62
2022/12/10 10:29:07;;;;;;;9.32;8.60;;;;;;;;;;5007439;28;20048;-61
2022/12/10 10:31:34;;;;;;;9.32;8.63;;;;;;;;;;5011198;28;20033;-62
2022/12/10 10:34:03;;;;;;;9.10;8.40;;;;;;;;;;5010508;28;20620;-62
2022/12/10 10:36:32;;;;;;;9.90;9.10;;;;;;;;;;5009511;28;20033;-62
2022/12/10 10:39:09;;;;;;;9.63;8.93;;;;;;;;;;5011432;28;20121;-62
2022/12/10 10:41:39;;;;;;;9.10;8.50;;;;;;;;;;5011397;28;20462;-62
2022/12/10 10:44:15;;;;;;;9.35;8.52;;;;;;;;;;5012960;28;20037;-64
2022/12/10 10:46:41;;;;;;;9.27;8.65;;;;;;;;;;5013523;28;20111;-63
2022/12/10 10:49:28;;;;;;;10.25;9.55;;;;;;;;;;5011708;28;20467;-63
2022/12/10 10:52:12;;;;;;;10.80;10.07;;;;;;;;;;5014829;28;20068;-63
2022/12/10 10:54:45;;;;;;;10.27;9.57;;;;;;;;;;5015079;28;20083;-63
2022/12/10 10:57:15;;;;;;;10.27;9.57;;;;;;;;;;5010469;28;20029;-63
2022/12/10 10:59:41;;;;;;;10.48;9.77;;;;;;;;;;5012269;28;20072;-63
2022/12/10 11:02:43;;;;;;;10.32;9.63;;;;;;;;;;5012032;28;20058;-64
2022/12/10 11:05:26;;;;;;;10.17;9.47;;;;;;;;;;4996069;28;20379;-64
2022/12/10 11:08:03;;;;;;;12.52;11.63;;;;;;;;;;5010838;28;20044;-64
2022/12/10 11:10:29;;;;;;;11.30;10.50;;;;;;;;;;5014298;28;20033;-62
2022/12/10 11:13:04;;;;;;;12.57;11.75;;;;;;;;;;5013009;28;20482;-65
2022/12/10 11:15:29;;;;;;;10.50;9.80;;;;;;;;;;5014148;28;20042;-64
2022/12/10 11:17:55;;;;;;;11.60;10.80;;;;;;;;;;5009911;28;20037;-63
2022/12/10 11:20:27;;;;;;;10.20;9.52;;;;;;;;;;5011464;28;20072;-62
2022/12/10 11:22:58;;;;;;;11.43;10.73;;;;;;;;;;5013863;28;20045;-63
2022/12/10 11:25:36;;;;;;;11.05;10.27;;;;;;;;;;5016913;28;20107;-63
2022/12/10 11:28:21;;;;;;;11.40;10.60;;;;;;;;;;5010994;28;20085;-63
2022/12/10 11:31:14;;;;;;;12.18;11.27;;;;;;;;;;5013532;28;20025;-63
2022/12/10 11:33:51;;;;;;;13.20;12.20;;;;;;;;;;5013910;28;20249;-63
2022/12/10 11:36:24;;;;;;;12.07;11.25;;;;;;;;;;5013007;28;20040;-64
2022/12/10 11:39:27;;;;;;;12.65;11.30;;;;;;;;;;5012793;28;20041;-62
2022/12/10 11:41:56;;;;;;;11.38;10.57;;;;;;;;;;5011151;28;20087;-63
2022/12/10 11:44:30;;;;;;;10.23;9.60;;;;;;;;;;5013632;28;20049;-61
2022/12/10 11:47:34;;;;;;;12.45;11.57;;;;;;;;;;5012982;28;20034;-61
2022/12/10 11:50:24;;;;;;;11.15;10.45;;;;;;;;;;5010726;28;20048;-62
2022/12/10 11:53:12;;;;;;;11.95;11.15;;;;;;;;;;5012019;28;20128;-64
2022/12/10 11:55:43;;;;;;;11.07;10.27;;;;;;;;;;5022298;28;20033;-63
2022/12/10 11:58:32;;;;;;;11.75;10.95;;;;;;;;;;5015264;28;20476;-63
2022/12/10 12:01:26;;;;;;;11.80;10.95;;;;;;;;;;5012235;28;20080;-60
2022/12/10 12:04:18;;;;;;;11.45;10.75;;;;;;;;;;5014808;28;20137;-62
2022/12/10 12:06:53;;;;;;;12.63;11.82;;;;;;;;;;5014610;28;20068;-63
2022/12/10 12:09:21;;;;;;;11.95;11.15;;;;;;;;;;5015648;28;20048;-63
2022/12/10 12:12:17;;;;;;;11.73;11.02;;;;;;;;;;5010633;28;20064;-63
2022/12/10 12:14:54;;;;;;;11.00;10.30;;;;;;;;;;5014424;28;20045;-62
2022/12/10 12:17:30;;;;;;;11.60;10.85;;;;;;;;;;5013759;28;20111;-61
2022/12/10 12:20:17;;;;;;;12.45;11.63;;;;;;;;;;5009212;28;20038;-64
2022/12/10 12:22:56;;;;;;;11.68;10.88;;;;;;;;;;5012616;28;20030;-61
2022/12/10 12:25:26;;;;;;;12.27;11.38;;;;;;;;;;5014151;28;20029;-61
2022/12/10 12:27:58;;;;;;;12.20;11.30;;;;;;;;;;5006486;28;20459;-58
2022/12/10 12:30:24;;;;;;;11.50;10.57;;;;;;;;;;5012220;28;20033;-62
2022/12/10 12:32:58;;;;;;;12.38;11.55;;;;;;;;;;5004632;28;20099;-61
2022/12/10 12:35:47;;;;;;;12.70;11.90;;;;;;;;;;5015580;28;20030;-61
2022/12/10 12:38:35;;;;;;;12.73;11.93;;;;;;;;;;5013420;28;20037;-62
2022/12/10 12:41:03;;;;;;;14.52;11.93;;;;;;;;;;5021654;28;20190;-61
2022/12/10 12:43:35;;;;;;;11.27;10.57;;;;;;;;;;5021490;28;20033;-61
2022/12/10 12:46:03;;;;;;;11.63;10.93;;;;;;;;;;5012824;28;20026;-58
2022/12/10 12:48:39;;;;;;;12.45;11.57;;;;;;;;;;5012226;28;20038;-59
2022/12/10 12:51:14;;;;;;;11.40;10.60;;;;;;;;;;5012045;28;20042;-58
2022/12/10 12:53:39;;;;;;;13.38;12.50;;;;;;;;;;5011995;28;20095;-59
2022/12/10 12:56:17;;;;;;;13.73;12.63;;;;;;;;;;5011430;28;20801;-59
2022/12/10 12:58:49;;;;;;;12.90;12.10;;;;;;;;;;5012871;28;20122;-58
2022/12/10 13:01:50;;;;;;;12.23;11.43;;;;;;;;;;4996983;28;20033;-60
2022/12/10 13:04:16;;;;;;;11.85;11.15;;;;;;;;;;5002076;28;20103;-60
2022/12/10 13:06:45;;;;;;;12.27;11.38;;;;;;;;;;5013391;28;20046;-61
2022/12/10 13:09:13;;;;;;;12.35;11.55;;;;;;;;;;5015709;28;20042;-61
2022/12/10 13:11:43;;;;;;;13.13;12.23;;;;;;;;;;5017842;28;20423;-61
2022/12/10 13:14:08;;;;;;;14.13;13.23;;;;;;;;;;5018520;28;20115;-61
2022/12/10 13:16:46;;;;;;;11.98;11.18;;;;;;;;;;5019080;28;20060;-61
2022/12/10 13:19:20;;;;;;;12.63;11.57;;;;;;;;;;5017335;28;20045;-60
2022/12/10 13:22:01;;;;;;;13.23;12.32;;;;;;;;;;5015000;28;20080;-62
2022/12/10 13:24:37;;;;;;;13.95;12.77;;;;;;;;;;5020280;28;20041;-62
2022/12/10 13:27:11;;;;;;;11.82;11.07;;;;;;;;;;5013940;28;20637;-61
2022/12/10 13:29:50;;;;;;;12.32;11.52;;;;;;;;;;5010881;28;20868;-61
2022/12/10 13:32:31;;;;;;;11.25;10.52;;;;;;;;;;5014749;28;20040;-61
2022/12/10 13:35:16;;;;;;;13.13;12.00;;;;;;;;;;5016684;28;20056;-60
2022/12/10 13:37:52;;;;;;;12.52;11.73;;;;;;;;;;5016690;28;20058;-60
2022/12/10 13:40:29;;;;;;;12.45;11.55;;;;;;;;;;5015177;28;20030;-60
2022/12/10 13:45:43;;;;;;;12.98;12.07;;;;;;;;;;5016503;28;20412;-61
2022/12/10 13:48:31;;;;;;;13.02;12.13;;;;;;;;;;5014926;28;20038;-60
2022/12/10 13:50:59;;;;;;;12.50;11.70;;;;;;;;;;5016221;28;20055;-59
2022/12/10 13:54:03;;;;;;;12.43;11.52;;;;;;;;;;5014917;28;20036;-60
2022/12/10 13:56:43;;;;;;;13.38;12.40;;;;;;;;;;5011783;28;20042;-60
2022/12/10 13:59:44;;;;;;;13.23;12.32;;;;;;;;;;5015495;28;20042;-60
2022/12/10 14:02:28;;;;;;;13.02;12.02;;;;;;;;;;5015163;28;20068;-60
2022/12/10 14:05:09;;;;;;;11.80;10.65;;;;;;;;;;5015041;28;20034;-61
2022/12/10 14:07:35;;;;;;;11.30;10.60;;;;;;;;;;5015959;28;20045;-58
2022/12/10 14:10:01;;;;;;;13.00;12.10;;;;;;;;;;5013935;28;20033;-58
2022/12/10 14:12:31;;;;;;;11.85;11.05;;;;;;;;;;5015468;28;20048;-58
2022/12/10 14:15:04;;;;;;;11.43;10.68;;;;;;;;;;5011852;28;20030;-59
2022/12/10 14:17:41;;;;;;;12.57;11.77;;;;;;;;;;5013669;28;20113;-58
2022/12/10 14:20:13;;;;;;;12.75;11.90;;;;;;;;;;5011739;28;20108;-58
2022/12/10 14:22:45;;;;;;;11.65;10.95;;;;;;;;;;5021915;28;20129;-58
2022/12/10 14:25:14;;;;;;;11.75;11.02;;;;;;;;;;5014571;28;20129;-58
2022/12/10 14:27:39;;;;;;;11.40;10.70;;;;;;;;;;5014199;28;20041;-58
2022/12/10 14:30:17;;;;;;;11.20;10.48;;;;;;;;;;5014136;28;20061;-58
2022/12/10 14:32:43;;;;;;;12.00;11.20;;;;;;;;;;5012474;28;20032;-58
2022/12/10 14:35:25;;;;;;;12.32;11.52;;;;;;;;;;5012873;28;20042;-59
2022/12/10 14:37:51;;;;;;;;;;;;;;;;;;5012406;28;20044;-59
2022/12/10 14:40:24;;;;;;;11.30;10.50;;;;;;;;;;5014955;28;20645;-58
2022/12/10 14:42:54;;;;;;;10.93;10.23;;;;;;;;;;5017543;28;20034;-58
2022/12/10 14:45:20;;;;;;;12.07;11.27;;;;;;;;;;5013773;28;20037;-58
2022/12/10 14:47:47;;;;;;;12.27;11.38;;;;;;;;;;5013098;28;20371;-57
2022/12/10 14:50:15;;;;;;;12.20;11.40;;;;;;;;;;5013325;28;20195;-57
2022/12/10 14:52:44;;;;;;;13.25;12.45;;;;;;;;;;5015768;28;20095;-57
2022/12/10 14:55:18;;;;;;;11.63;10.90;;;;;;;;;;5013847;28;20037;-56
2022/12/10 14:57:49;;;;;;;14.45;13.52;;;;;;;;;;5012074;28;20056;-57
2022/12/10 15:00:17;;;;;;;11.77;11.00;;;;;;;;;;5014597;28;20057;-56
2022/12/10 15:02:57;;;;;;;12.13;11.43;;;;;;;;;;5014342;28;20038;-54
2022/12/10 15:05:26;;;;;;;12.95;12.05;;;;;;;;;;5016659;28;20712;-57
2022/12/10 15:07:56;;;;;;;13.68;12.73;;;;;;;;;;5009901;28;20064;-56